createdAt,value
2018-12-22T00:00:30.659Z,0.83
2018-12-22T00:02:58.238Z,1.10
2018-12-22T00:05:25.841Z,0.83
2018-12-22T00:07:53.419Z,0.90
2018-12-22T00:10:21.014Z,1.20
2018-12-22T00:12:48.587Z,1.00
2018-12-22T00:15:16.186Z,1.00
2018-12-22T00:17:43.764Z,0.90
2018-12-22T00:20:11.363Z,1.10
2018-12-22T00:22:38.948Z,0.90
2018-12-22T00:25:06.555Z,0.80
2018-12-22T00:27:34.141Z,1.27
2018-12-22T00:30:01.747Z,1.17
2018-12-22T00:32:29.328Z,1.00
2018-12-22T00:34:56.933Z,1.13
2018-12-22T00:37:24.514Z,1.40
2018-12-22T00:39:52.205Z,1.30
2018-12-22T00:42:19.852Z,1.17
2018-12-22T00:44:47.455Z,1.20
2018-12-22T00:47:15.035Z,1.53
2018-12-22T00:49:42.635Z,1.30
2018-12-22T00:52:10.215Z,1.13
2018-12-22T00:54:41.361Z,1.50
2018-12-22T00:57:08.936Z,1.10
2018-12-22T00:59:36.541Z,0.83
2018-12-22T01:02:04.210Z,1.37
2018-12-22T01:04:37.643Z,1.40
2018-12-22T01:07:11.212Z,1.37
2018-12-22T01:09:46.699Z,1.33
2018-12-22T01:12:14.280Z,1.50
2018-12-22T01:14:41.882Z,1.50
2018-12-22T01:17:09.457Z,1.10
2018-12-22T01:19:49.728Z,1.30
2018-12-22T01:22:23.543Z,1.40
2018-12-22T01:24:51.155Z,1.00
2018-12-22T01:27:18.737Z,1.80
2018-12-22T01:29:46.360Z,1.17
2018-12-22T01:32:13.966Z,1.27
2018-12-22T01:34:41.574Z,1.37
2018-12-22T01:37:10.816Z,1.20
2018-12-22T01:39:38.419Z,1.20
2018-12-22T01:42:11.890Z,0.93
2018-12-22T01:47:41.043Z,1.20
2018-12-22T01:50:08.646Z,1.03
2018-12-22T01:52:36.228Z,1.10
2018-12-22T01:55:05.794Z,1.20
2018-12-22T01:57:37.036Z,1.00
2018-12-22T02:00:20.039Z,1.00
2018-12-22T02:05:50.143Z,0.97
2018-12-22T02:08:23.836Z,0.63
2018-12-22T02:10:55.203Z,1.10
2018-12-22T02:13:26.495Z,0.80
2018-12-22T02:16:00.277Z,0.90
2018-12-22T02:18:31.397Z,0.90
2018-12-22T02:21:05.218Z,0.87
2018-12-22T02:23:36.334Z,1.53
2018-12-22T02:26:09.833Z,1.30
2018-12-22T02:28:43.881Z,1.37
2018-12-22T02:31:17.680Z,1.60
2018-12-22T02:33:51.547Z,1.30
2018-12-22T02:36:25.550Z,1.17
2018-12-22T02:38:59.445Z,0.90
2018-12-22T02:41:30.367Z,1.30
2018-12-22T02:44:01.200Z,1.10
2018-12-22T02:46:32.565Z,0.73
2018-12-22T02:49:03.485Z,0.77
2018-12-22T02:51:36.859Z,1.00
2018-12-22T02:54:10.758Z,0.80
2018-12-22T02:56:41.894Z,0.90
2018-12-22T02:59:13.314Z,1.10
2018-12-22T03:01:51.778Z,0.97
2018-12-22T03:04:25.669Z,0.90
2018-12-22T03:06:56.404Z,0.90
2018-12-22T03:09:27.427Z,0.60
2018-12-22T03:12:01.226Z,0.73
2018-12-22T03:14:32.242Z,0.83
2018-12-22T03:17:05.640Z,0.80
2018-12-22T03:19:36.369Z,0.80
2018-12-22T03:22:07.091Z,0.80
2018-12-22T03:24:37.842Z,0.70
2018-12-22T03:27:11.639Z,0.60
2018-12-22T03:29:45.342Z,0.63
2018-12-22T03:32:19.246Z,0.77
2018-12-22T03:34:50.202Z,0.90
2018-12-22T03:37:23.928Z,1.27
2018-12-22T03:39:54.864Z,0.83
2018-12-22T03:42:25.944Z,0.60
2018-12-22T03:47:30.269Z,0.70
2018-12-22T03:50:04.765Z,0.80
2018-12-22T03:52:35.616Z,0.80
2018-12-22T03:55:05.016Z,0.70
2018-12-22T03:57:38.331Z,0.90
2018-12-22T04:00:12.135Z,0.60
2018-12-22T04:02:46.174Z,0.63
2018-12-22T04:05:20.081Z,0.73
2018-12-22T04:07:53.621Z,1.00
2018-12-22T04:10:21.207Z,1.10
2018-12-22T04:12:54.500Z,0.87
2018-12-22T04:15:22.089Z,0.80
2018-12-22T04:17:53.503Z,0.70
2018-12-22T04:20:27.093Z,0.97
2018-12-22T04:23:00.929Z,0.97
2018-12-22T04:25:31.968Z,0.97
2018-12-22T04:28:05.571Z,1.20
2018-12-22T04:30:39.245Z,1.10
2018-12-22T04:33:13.655Z,1.03
2018-12-22T04:35:47.625Z,1.00
2018-12-22T04:41:11.525Z,1.23
2018-12-22T04:43:39.132Z,1.03
2018-12-22T04:49:02.723Z,1.20
2018-12-22T04:51:30.323Z,1.10
2018-12-22T04:54:01.656Z,1.20
2018-12-22T04:56:29.239Z,1.60
2018-12-22T04:58:57.708Z,1.13
2018-12-22T05:01:28.327Z,1.07
2018-12-22T05:03:55.937Z,1.50
2018-12-22T05:06:23.531Z,1.10
2018-12-22T05:08:51.136Z,1.10
2018-12-22T05:11:18.725Z,1.50
2018-12-22T05:13:46.326Z,1.53
2018-12-22T05:16:13.910Z,1.10
2018-12-22T05:18:41.521Z,1.53
2018-12-22T05:21:09.106Z,1.60
2018-12-22T05:23:36.710Z,1.70
2018-12-22T05:26:04.295Z,1.77
2018-12-22T05:28:32.018Z,2.20
2018-12-22T05:30:59.598Z,2.57
2018-12-22T05:33:27.184Z,1.70
2018-12-22T05:35:54.796Z,1.30
2018-12-22T05:38:22.385Z,2.60
2018-12-22T05:40:49.989Z,2.63
2018-12-22T05:43:17.573Z,3.07
2018-12-22T05:45:45.187Z,3.10
2018-12-22T05:48:12.780Z,2.87
2018-12-22T05:50:40.496Z,2.40
2018-12-22T05:53:08.107Z,3.23
2018-12-22T05:55:35.723Z,2.43
2018-12-22T05:58:03.342Z,2.13
2018-12-22T06:00:30.960Z,2.20
2018-12-22T06:02:58.542Z,2.30
2018-12-22T06:05:26.155Z,2.23
2018-12-22T06:07:53.747Z,1.93
2018-12-22T06:10:21.353Z,1.60
2018-12-22T06:12:48.946Z,2.30
2018-12-22T06:15:16.563Z,2.83
2018-12-22T06:17:44.159Z,3.33
2018-12-22T06:20:11.759Z,3.43
2018-12-22T06:22:39.341Z,3.63
2018-12-22T06:25:06.959Z,2.60
2018-12-22T06:27:34.555Z,3.47
2018-12-22T06:30:09.129Z,4.43
2018-12-22T06:32:31.793Z,3.80
2018-12-22T06:34:59.411Z,3.20
2018-12-22T06:37:26.994Z,3.23
2018-12-22T06:39:54.599Z,2.23
2018-12-22T06:42:22.183Z,2.10
2018-12-22T06:44:49.795Z,2.17
2018-12-22T06:47:17.389Z,2.17
2018-12-22T06:49:44.998Z,2.30
2018-12-22T06:52:12.580Z,2.30
2018-12-22T06:54:40.183Z,1.70
2018-12-22T06:57:07.783Z,2.20
2018-12-22T06:59:35.368Z,2.13
2018-12-22T07:02:02.979Z,2.10
2018-12-22T07:04:30.572Z,2.60
2018-12-22T07:06:58.179Z,2.77
2018-12-22T07:09:25.772Z,2.40
2018-12-22T07:11:53.389Z,2.60
2018-12-22T07:14:20.974Z,2.50
2018-12-22T07:16:48.588Z,2.67
2018-12-22T07:19:16.323Z,2.47
2018-12-22T07:21:43.935Z,3.17
2018-12-22T07:24:11.618Z,2.50
2018-12-22T07:26:39.283Z,2.90
2018-12-22T07:29:07.178Z,3.40
2018-12-22T07:31:34.791Z,2.53
2018-12-22T07:34:02.383Z,2.80
2018-12-22T07:36:30.001Z,3.47
2018-12-22T07:38:57.589Z,3.23
2018-12-22T07:41:25.204Z,2.57
2018-12-22T07:43:52.799Z,3.43
2018-12-22T07:46:20.420Z,3.80
2018-12-22T07:48:48.014Z,2.77
2018-12-22T07:51:15.630Z,3.60
2018-12-22T07:53:43.225Z,3.93
2018-12-22T07:56:10.845Z,3.60
2018-12-22T07:58:38.431Z,3.40
2018-12-22T08:01:06.114Z,4.03
2018-12-22T08:03:33.702Z,3.73
2018-12-22T08:06:01.309Z,3.93
2018-12-22T08:08:28.903Z,3.70
2018-12-22T08:10:56.513Z,4.40
2018-12-22T08:13:24.105Z,4.27
2018-12-22T08:15:51.791Z,4.30
2018-12-22T08:18:19.383Z,4.50
2018-12-22T08:20:47.007Z,4.83
2018-12-22T08:23:14.592Z,3.70
2018-12-22T08:25:42.183Z,4.10
2018-12-22T08:28:09.801Z,3.90
2018-12-22T08:30:43.444Z,4.50
2018-12-22T08:33:07.043Z,4.20
2018-12-22T08:35:34.714Z,4.40
2018-12-22T08:38:02.338Z,4.00
2018-12-22T08:40:29.924Z,4.73
2018-12-22T08:42:57.564Z,5.13
2018-12-22T08:45:25.151Z,4.87
2018-12-22T08:47:52.775Z,5.23
2018-12-22T08:50:20.355Z,4.77
2018-12-22T08:52:47.975Z,4.43
2018-12-22T08:55:15.572Z,4.90
2018-12-22T08:57:43.180Z,4.77
2018-12-22T09:00:11.535Z,3.67
2018-12-22T09:02:39.143Z,4.50
2018-12-22T09:05:13.118Z,4.13
2018-12-22T09:07:40.727Z,3.67
2018-12-22T09:10:31.254Z,4.77
2018-12-22T09:12:58.873Z,5.00
2018-12-22T09:15:26.467Z,3.90
2018-12-22T09:17:54.083Z,4.27
2018-12-22T09:20:21.676Z,3.87
2018-12-22T09:22:49.296Z,4.80
2018-12-22T09:25:16.878Z,2.77
2018-12-22T09:27:44.479Z,2.97
2018-12-22T09:30:12.066Z,2.97
2018-12-22T09:32:39.674Z,2.67
2018-12-22T09:35:07.274Z,2.90
2018-12-22T09:37:40.963Z,2.83
2018-12-22T09:40:08.570Z,3.10
2018-12-22T09:42:36.179Z,2.17
2018-12-22T09:45:04.627Z,3.07
2018-12-22T09:47:32.267Z,2.87
2018-12-22T09:49:59.860Z,3.10
2018-12-22T09:52:27.443Z,3.37
2018-12-22T09:54:55.059Z,3.60
2018-12-22T09:57:22.643Z,2.90
2018-12-22T09:59:50.264Z,2.73
2018-12-22T10:02:17.848Z,3.33
2018-12-22T10:04:45.459Z,3.10
2018-12-22T10:07:13.221Z,3.40
2018-12-22T10:09:40.831Z,2.57
2018-12-22T10:12:08.428Z,3.70
2018-12-22T10:14:36.039Z,3.30
2018-12-22T10:17:04.952Z,3.13
2018-12-22T10:19:32.788Z,3.10
2018-12-22T10:22:00.372Z,3.70
2018-12-22T10:24:27.979Z,3.80
2018-12-22T10:26:55.573Z,4.00
2018-12-22T10:29:23.174Z,3.67
2018-12-22T10:31:50.768Z,3.67
2018-12-22T10:34:18.428Z,3.70
2018-12-22T10:36:46.026Z,3.33
2018-12-22T10:39:13.627Z,3.23
2018-12-22T10:41:41.232Z,4.10
2018-12-22T10:44:08.860Z,3.90
2018-12-22T10:46:36.450Z,4.13
2018-12-22T10:49:04.055Z,4.30
2018-12-22T10:51:31.652Z,4.20
2018-12-22T10:53:59.334Z,4.13
2018-12-22T10:56:26.923Z,3.30
2018-12-22T10:58:54.539Z,3.30
2018-12-22T11:01:26.451Z,4.00
2018-12-22T11:03:51.769Z,4.10
2018-12-22T11:06:19.372Z,3.93
2018-12-22T11:08:46.956Z,4.30
2018-12-22T11:11:14.564Z,3.77
2018-12-22T11:13:42.149Z,3.50
2018-12-22T11:16:09.764Z,3.47
2018-12-22T11:18:37.350Z,4.63
2018-12-22T11:21:04.953Z,4.13
2018-12-22T11:23:32.543Z,4.10
2018-12-22T11:26:00.155Z,3.83
2018-12-22T11:28:27.752Z,3.87
2018-12-22T11:30:55.721Z,4.00
2018-12-22T11:33:23.307Z,3.77
2018-12-22T11:35:50.910Z,3.77
2018-12-22T11:38:18.497Z,3.20
2018-12-22T11:40:46.103Z,3.50
2018-12-22T11:43:13.776Z,3.40
2018-12-22T11:45:41.370Z,3.27
2018-12-22T11:48:12.925Z,4.37
2018-12-22T11:50:40.532Z,4.17
2018-12-22T11:53:08.116Z,3.57
2018-12-22T11:55:35.719Z,4.03
2018-12-22T11:58:03.301Z,4.17
2018-12-22T12:00:30.902Z,4.70
2018-12-22T12:02:58.488Z,4.20
2018-12-22T12:05:26.091Z,4.00
2018-12-22T12:07:53.674Z,4.57
2018-12-22T12:10:21.304Z,4.17
2018-12-22T12:12:48.987Z,4.23
2018-12-22T12:15:18.938Z,5.20
2018-12-22T12:18:01.517Z,5.00
2018-12-22T12:20:29.104Z,4.40
2018-12-22T12:22:56.709Z,5.47
2018-12-22T12:25:24.298Z,5.80
2018-12-22T12:27:51.906Z,4.77
2018-12-22T12:30:19.486Z,5.10
2018-12-22T12:32:47.103Z,4.00
2018-12-22T12:35:14.699Z,3.70
2018-12-22T12:37:42.306Z,3.97
2018-12-22T12:40:11.950Z,3.60
2018-12-22T12:42:39.557Z,3.60
2018-12-22T12:45:11.094Z,3.73
2018-12-22T12:47:38.783Z,3.83
2018-12-22T12:50:10.314Z,4.20
2018-12-22T12:52:37.915Z,4.13
2018-12-22T12:55:10.811Z,3.80
2018-12-22T12:57:38.614Z,3.60
2018-12-22T13:00:18.668Z,4.20
2018-12-22T13:02:46.360Z,4.57
2018-12-22T13:05:13.951Z,4.57
2018-12-22T13:07:41.554Z,4.30
2018-12-22T13:10:12.581Z,3.90
2018-12-22T13:12:48.896Z,4.40
2018-12-22T13:15:16.480Z,4.73
2018-12-22T13:17:44.063Z,4.30
2018-12-22T13:20:11.837Z,4.70
2018-12-22T13:22:39.422Z,4.83
2018-12-22T13:25:07.026Z,4.40
2018-12-22T13:27:34.611Z,4.60
2018-12-22T13:30:02.222Z,4.23
2018-12-22T13:32:29.813Z,4.83
2018-12-22T13:34:57.423Z,4.40
2018-12-22T13:37:25.003Z,4.20
2018-12-22T13:39:52.695Z,4.63
2018-12-22T13:42:20.283Z,4.60
2018-12-22T13:44:47.883Z,6.70
2018-12-22T13:47:15.470Z,5.73
2018-12-22T13:49:43.093Z,6.10
2018-12-22T13:52:10.676Z,5.30
2018-12-22T13:54:38.291Z,5.20
2018-12-22T13:57:05.881Z,5.50
2018-12-22T13:59:33.489Z,5.00
2018-12-22T14:02:01.075Z,4.60
2018-12-22T14:04:28.851Z,4.50
2018-12-22T14:06:56.439Z,4.50
2018-12-22T14:09:24.056Z,4.50
2018-12-22T14:11:51.654Z,4.70
2018-12-22T14:14:19.273Z,5.50
2018-12-22T14:16:46.939Z,6.40
2018-12-22T14:19:14.645Z,11.17
2018-12-22T14:21:42.228Z,6.30
2018-12-22T14:24:14.630Z,5.43
2018-12-22T14:26:42.295Z,4.57
2018-12-22T14:29:09.904Z,5.70
2018-12-22T14:31:37.496Z,6.37
2018-12-22T14:34:09.829Z,7.30
2018-12-22T14:36:37.418Z,5.80
2018-12-22T14:39:06.890Z,5.10
2018-12-22T14:41:34.476Z,5.00
2018-12-22T14:44:02.083Z,5.40
2018-12-22T14:46:29.675Z,7.03
2018-12-22T14:48:57.279Z,6.20
2018-12-22T14:51:24.868Z,6.07
2018-12-22T14:53:52.482Z,4.87
2018-12-22T14:56:24.036Z,4.37
2018-12-22T14:58:51.634Z,4.40
2018-12-22T15:01:19.214Z,3.80
2018-12-22T15:03:46.828Z,3.57
2018-12-22T15:06:14.411Z,3.83
2018-12-22T15:08:42.020Z,3.50
2018-12-22T15:11:09.611Z,3.37
2018-12-22T15:13:37.202Z,3.40
2018-12-22T15:16:04.808Z,3.80
2018-12-22T15:18:32.405Z,3.77
2018-12-22T15:21:00.010Z,3.93
2018-12-22T15:23:27.594Z,3.70
2018-12-22T15:25:55.207Z,3.70
2018-12-22T15:28:22.794Z,5.07
2018-12-22T15:30:50.411Z,4.97
2018-12-22T15:33:17.999Z,4.83
2018-12-22T15:35:45.595Z,5.20
2018-12-22T15:38:13.179Z,4.67
2018-12-22T15:40:40.783Z,5.43
2018-12-22T15:43:08.436Z,5.30
2018-12-22T15:45:36.051Z,5.57
2018-12-22T15:48:03.631Z,5.73
2018-12-22T15:50:37.963Z,5.60
2018-12-22T15:53:05.543Z,5.87
2018-12-22T15:55:33.146Z,5.73
2018-12-22T15:58:00.732Z,5.97
2018-12-22T16:00:28.334Z,5.60
2018-12-22T16:02:55.920Z,5.87
2018-12-22T16:05:23.528Z,5.43
2018-12-22T16:07:51.113Z,5.90
2018-12-22T16:10:18.719Z,6.17
2018-12-22T16:12:46.299Z,6.60
2018-12-22T16:15:18.206Z,6.73
2018-12-22T16:17:45.794Z,5.67
2018-12-22T16:20:13.575Z,6.00
2018-12-22T16:22:44.823Z,6.20
2018-12-22T16:25:13.507Z,6.33
2018-12-22T16:27:41.655Z,6.77
2018-12-22T16:30:21.047Z,8.67
2018-12-22T16:32:48.635Z,9.43
2018-12-22T16:35:16.242Z,9.93
2018-12-22T16:37:43.840Z,8.40
2018-12-22T16:40:13.012Z,9.30
2018-12-22T16:42:40.888Z,8.50
2018-12-22T16:45:12.776Z,8.03
2018-12-22T16:47:40.527Z,9.00
2018-12-22T16:50:16.629Z,8.20
2018-12-22T16:52:44.217Z,7.97
2018-12-22T16:55:15.409Z,8.50
2018-12-22T16:57:57.872Z,8.23
2018-12-22T17:00:30.331Z,7.40
2018-12-22T17:02:57.922Z,7.90
2018-12-22T17:05:25.535Z,8.27
2018-12-22T17:07:53.114Z,7.47
2018-12-22T17:10:20.720Z,7.80
2018-12-22T17:12:48.309Z,8.10
2018-12-22T17:15:21.883Z,7.40
2018-12-22T17:17:45.547Z,6.30
2018-12-22T17:20:15.219Z,6.20
2018-12-22T17:22:48.700Z,5.33
2018-12-22T17:25:18.269Z,5.53
2018-12-22T17:27:45.860Z,5.80
2018-12-22T17:30:13.466Z,6.07
2018-12-22T17:32:41.055Z,8.33
2018-12-22T17:35:11.926Z,8.10
2018-12-22T17:37:39.527Z,7.47
2018-12-22T17:40:09.473Z,7.40
2018-12-22T17:42:37.443Z,7.27
2018-12-22T17:45:08.721Z,8.17
2018-12-22T17:47:36.330Z,9.30
2018-12-22T17:50:05.986Z,16.70
2018-12-22T17:52:33.600Z,10.27
2018-12-22T17:55:01.201Z,11.03
2018-12-22T17:57:28.813Z,13.70
2018-12-22T17:59:56.406Z,66.77
2018-12-22T18:02:24.022Z,18.37
2018-12-22T18:04:51.614Z,24.30
2018-12-22T18:07:19.226Z,11.63
2018-12-22T18:09:46.819Z,10.83
2018-12-22T18:12:14.423Z,10.00
2018-12-22T18:14:42.008Z,9.23
2018-12-22T18:17:09.627Z,8.90
2018-12-22T18:19:37.220Z,7.90
2018-12-22T18:22:04.834Z,8.50
2018-12-22T18:24:32.412Z,8.60
2018-12-22T18:27:00.029Z,8.17
2018-12-22T18:29:27.624Z,8.40
2018-12-22T18:31:55.239Z,7.70
2018-12-22T18:34:22.819Z,8.10
2018-12-22T18:36:50.450Z,8.10
2018-12-22T18:39:18.034Z,7.83
2018-12-22T18:41:45.702Z,8.07
2018-12-22T18:44:13.322Z,8.40
2018-12-22T18:46:40.910Z,7.80
2018-12-22T18:49:08.530Z,8.47
2018-12-22T18:51:36.139Z,8.50
2018-12-22T18:54:03.767Z,7.70
2018-12-22T18:56:31.358Z,8.57
2018-12-22T18:58:58.970Z,8.80
2018-12-22T19:01:26.563Z,8.50
2018-12-22T19:03:54.174Z,8.50
2018-12-22T19:06:21.755Z,8.20
2018-12-22T19:08:49.366Z,7.60
2018-12-22T19:11:17.033Z,8.63
2018-12-22T19:13:44.640Z,8.37
2018-12-22T19:16:12.224Z,8.30
2018-12-22T19:18:39.839Z,7.87
2018-12-22T19:21:07.913Z,7.90
2018-12-22T19:23:35.519Z,7.63
2018-12-22T19:26:03.110Z,12.83
2018-12-22T19:28:30.728Z,8.80
2018-12-22T19:30:58.315Z,8.90
2018-12-22T19:33:25.934Z,9.10
2018-12-22T19:35:53.517Z,9.77
2018-12-22T19:38:21.122Z,8.57
2018-12-22T19:40:48.718Z,9.07
2018-12-22T19:43:16.480Z,9.50
2018-12-22T19:45:44.075Z,8.83
2018-12-22T19:48:11.790Z,7.90
2018-12-22T19:50:39.403Z,7.50
2018-12-22T19:53:06.992Z,8.43
2018-12-22T19:55:34.608Z,9.03
2018-12-22T19:58:02.197Z,8.13
2018-12-22T20:00:29.823Z,8.20
2018-12-22T20:02:57.424Z,8.43
2018-12-22T20:05:25.031Z,8.70
2018-12-22T20:07:52.680Z,9.17
2018-12-22T20:10:20.366Z,8.60
2018-12-22T20:12:47.955Z,9.13
2018-12-22T20:15:16.419Z,9.17
2018-12-22T20:17:44.018Z,9.60
2018-12-22T20:20:11.650Z,9.30
2018-12-22T20:22:39.234Z,8.93
2018-12-22T20:25:06.852Z,9.90
2018-12-22T20:27:34.448Z,8.70
2018-12-22T20:30:02.066Z,9.10
2018-12-22T20:32:29.719Z,9.40
2018-12-22T20:34:57.332Z,9.47
2018-12-22T20:37:24.931Z,8.80
2018-12-22T20:39:52.555Z,8.87
2018-12-22T20:42:20.148Z,7.73
2018-12-22T20:44:47.754Z,8.80
2018-12-22T20:47:15.346Z,8.13
2018-12-22T20:49:42.964Z,8.30
2018-12-22T20:52:10.557Z,8.90
2018-12-22T20:54:38.163Z,9.57
2018-12-22T20:57:05.760Z,10.57
2018-12-22T20:59:33.384Z,9.77
2018-12-22T21:02:00.971Z,11.13
2018-12-22T21:04:28.591Z,10.70
2018-12-22T21:06:56.188Z,11.13
2018-12-22T21:09:23.850Z,10.30
2018-12-22T21:11:51.443Z,10.93
2018-12-22T21:14:19.027Z,9.73
2018-12-22T21:16:46.643Z,10.43
2018-12-22T21:19:14.237Z,12.60
2018-12-22T21:21:41.853Z,12.70
2018-12-22T21:24:09.447Z,11.37
2018-12-22T21:26:37.057Z,11.90
2018-12-22T21:29:04.643Z,11.70
2018-12-22T21:31:32.272Z,11.53
2018-12-22T21:33:59.863Z,10.80
2018-12-22T21:36:27.468Z,11.10
2018-12-22T21:38:55.063Z,11.07
2018-12-22T21:41:22.671Z,11.90
2018-12-22T21:43:50.260Z,10.93
2018-12-22T21:46:17.877Z,10.60
2018-12-22T21:48:45.461Z,11.07
2018-12-22T21:51:13.076Z,12.10
2018-12-22T21:53:40.671Z,10.87
2018-12-22T21:56:08.297Z,10.27
2018-12-22T21:58:35.890Z,10.90
2018-12-22T22:01:03.501Z,10.57
2018-12-22T22:03:31.099Z,10.13
2018-12-22T22:05:58.699Z,10.10
2018-12-22T22:08:26.314Z,10.83
2018-12-22T22:10:53.915Z,10.63
2018-12-22T22:13:21.524Z,10.67
2018-12-22T22:15:49.108Z,11.50
2018-12-22T22:18:16.725Z,10.50
2018-12-22T22:20:44.315Z,11.00
2018-12-22T22:23:18.813Z,10.20
2018-12-22T22:25:41.572Z,11.60
2018-12-22T22:28:09.188Z,11.57
2018-12-22T22:30:36.791Z,11.60
2018-12-22T22:33:04.408Z,10.90
2018-12-22T22:35:31.994Z,12.60
2018-12-22T22:37:59.599Z,11.17
2018-12-22T22:40:27.201Z,10.97
2018-12-22T22:42:54.831Z,13.40
2018-12-22T22:45:22.426Z,11.43
2018-12-22T22:47:50.044Z,12.30
2018-12-22T22:50:17.643Z,11.30
2018-12-22T22:52:45.257Z,12.10
2018-12-22T22:55:12.854Z,11.80
2018-12-22T22:57:40.465Z,12.70
2018-12-22T23:00:10.731Z,13.77
2018-12-22T23:02:38.347Z,14.20
2018-12-22T23:05:05.982Z,13.40
2018-12-22T23:07:33.597Z,14.47
2018-12-22T23:10:01.199Z,12.90
2018-12-22T23:12:28.868Z,15.73
2018-12-22T23:14:56.467Z,15.20
2018-12-22T23:17:24.077Z,14.27
2018-12-22T23:19:51.667Z,16.97
2018-12-22T23:22:19.281Z,16.90
2018-12-22T23:24:46.932Z,17.20
2018-12-22T23:27:14.622Z,17.33
2018-12-22T23:29:42.286Z,18.60
2018-12-22T23:32:09.896Z,19.03
2018-12-22T23:34:37.491Z,17.60
2018-12-22T23:37:05.196Z,18.90
2018-12-22T23:39:32.795Z,18.00
2018-12-22T23:42:00.410Z,17.73
2018-12-22T23:44:28.009Z,17.20
2018-12-22T23:46:55.660Z,19.00
2018-12-22T23:49:23.246Z,17.60
2018-12-22T23:51:50.850Z,19.50
2018-12-22T23:54:18.443Z,18.80
2018-12-22T23:56:46.073Z,16.93
2018-12-22T23:59:13.666Z,17.50
